createdAt,value
2017-05-03T00:02:02.883Z,10.3
2017-05-03T00:07:03.006Z,10.2
2017-05-03T00:12:03.051Z,10.3
2017-05-03T00:17:03.692Z,10.3
2017-05-03T00:22:03.469Z,10.3
2017-05-03T00:27:03.310Z,10.4
2017-05-03T00:32:03.022Z,10.5
2017-05-03T00:37:03.024Z,10.4
2017-05-03T00:42:02.899Z,10.5
2017-05-03T00:47:02.719Z,10.5
2017-05-03T00:52:03.074Z,10.5
2017-05-03T00:57:02.899Z,10.5
2017-05-03T01:02:02.983Z,10.5
2017-05-03T01:07:03.052Z,10.6
2017-05-03T01:12:02.990Z,10.6
2017-05-03T01:17:03.095Z,10.6
2017-05-03T01:22:03.601Z,10.6
2017-05-03T01:27:03.448Z,10.6
2017-05-03T01:32:03.199Z,10.6
2017-05-03T01:37:02.995Z,10.6
2017-05-03T01:42:02.854Z,10.6
2017-05-03T01:47:02.712Z,10.6
2017-05-03T01:52:03.522Z,10.5
2017-05-03T01:57:03.288Z,10.5
2017-05-03T02:02:03.299Z,10.5
2017-05-03T02:07:03.378Z,10.5
2017-05-03T02:12:03.330Z,10.5
2017-05-03T02:17:03.428Z,10.5
2017-05-03T02:22:03.614Z,10.4
2017-05-03T02:27:03.338Z,10.4
2017-05-03T02:32:03.062Z,10.4
2017-05-03T02:37:02.830Z,10.4
2017-05-03T02:42:03.356Z,10.4
2017-05-03T02:47:03.695Z,10.4
2017-05-03T02:52:03.049Z,10.4
2017-05-03T02:57:03.226Z,10.5
2017-05-03T03:02:03.475Z,10.4
2017-05-03T03:07:03.015Z,10.1
2017-05-03T03:12:03.363Z,10.1
2017-05-03T03:17:03.713Z,9.9
2017-05-03T03:22:03.094Z,9.8
2017-05-03T03:27:03.265Z,9.7
2017-05-03T03:32:07.931Z,9.7
2017-05-03T03:37:03.015Z,9.7
2017-05-03T03:42:03.334Z,9.8
2017-05-03T03:47:17.697Z,9.9
2017-05-03T03:52:03.192Z,10.0
2017-05-03T03:57:03.550Z,9.9
2017-05-03T04:02:17.554Z,10.1
2017-05-03T04:07:03.342Z,10.0
2017-05-03T04:12:03.673Z,10.1
2017-05-03T04:17:17.367Z,10.1
2017-05-03T04:22:03.242Z,10.1
2017-05-03T04:27:02.841Z,10.1
2017-05-03T04:32:13.551Z,10.1
2017-05-03T04:37:03.291Z,10.1
2017-05-03T04:42:03.526Z,10.2
2017-05-03T04:47:13.473Z,10.4
2017-05-03T04:52:03.315Z,10.5
2017-05-03T04:57:02.740Z,10.4
2017-05-03T05:02:17.823Z,10.5
2017-05-03T05:07:03.535Z,10.6
2017-05-03T05:12:03.248Z,10.7
2017-05-03T05:17:17.512Z,10.7
2017-05-03T05:22:03.159Z,11.0
2017-05-03T05:27:03.498Z,10.9
2017-05-03T05:32:22.821Z,11.1
2017-05-03T05:37:03.217Z,11.2
2017-05-03T05:42:03.513Z,11.4
2017-05-03T05:47:23.144Z,11.3
2017-05-03T05:52:03.350Z,11.4
2017-05-03T05:57:02.766Z,11.3
2017-05-03T06:02:17.705Z,11.2
2017-05-03T06:07:02.904Z,11.1
2017-05-03T06:12:03.334Z,11.1
2017-05-03T06:17:14.366Z,11.2
2017-05-03T06:22:03.595Z,11.3
2017-05-03T06:27:03.041Z,11.3
2017-05-03T06:32:13.683Z,11.4
2017-05-03T06:37:03.042Z,11.4
2017-05-03T06:42:02.704Z,11.4
2017-05-03T06:47:17.798Z,11.4
2017-05-03T06:52:02.762Z,11.4
2017-05-03T06:57:03.171Z,11.4
2017-05-03T07:02:14.123Z,11.5
2017-05-03T07:07:03.067Z,11.8
2017-05-03T07:12:03.514Z,11.9
2017-05-03T07:17:17.803Z,12.0
2017-05-03T07:22:03.218Z,11.9
2017-05-03T07:27:03.538Z,12.1
2017-05-03T07:32:22.833Z,12.4
2017-05-03T07:37:03.480Z,12.4
2017-05-03T07:42:03.097Z,12.5
2017-05-03T07:52:02.673Z,13.1
2017-05-03T07:57:03.102Z,13.4
2017-05-03T08:02:17.997Z,13.8
2017-05-03T08:07:03.150Z,15.0
2017-05-03T08:12:03.626Z,14.9
2017-05-03T08:17:13.577Z,16.4
2017-05-03T08:22:03.349Z,16.7
2017-05-03T08:27:02.742Z,16.6
2017-05-03T08:32:13.197Z,16.7
2017-05-03T08:37:02.891Z,16.6
2017-05-03T08:42:03.306Z,16.5
2017-05-03T08:52:02.684Z,16.6
2017-05-03T08:57:03.109Z,16.7
2017-05-03T09:02:13.931Z,16.6
2017-05-03T09:07:03.242Z,16.1
2017-05-03T09:12:03.641Z,16.0
2017-05-03T09:17:13.555Z,15.5
2017-05-03T09:22:03.374Z,15.5
2017-05-03T09:27:02.871Z,15.7
2017-05-03T09:32:13.534Z,15.9
2017-05-03T09:37:03.590Z,15.8
2017-05-03T09:42:02.922Z,15.6
2017-05-03T09:47:13.565Z,15.6
2017-05-03T09:52:03.276Z,15.9
2017-05-03T09:57:02.728Z,15.5
2017-05-03T10:02:17.674Z,16.3
2017-05-03T10:07:03.599Z,16.2
2017-05-03T10:12:03.071Z,16.1
2017-05-03T10:17:14.032Z,16.2
2017-05-03T10:22:02.847Z,15.8
2017-05-03T10:27:03.183Z,15.7
2017-05-03T10:32:13.831Z,15.4
2017-05-03T10:37:03.223Z,15.1
2017-05-03T10:42:03.480Z,15.0
2017-05-03T10:47:13.499Z,14.9
2017-05-03T10:52:03.521Z,14.8
2017-05-03T10:57:02.929Z,14.8
2017-05-03T11:02:13.675Z,15.0
2017-05-03T11:07:02.879Z,15.0
2017-05-03T11:12:02.954Z,15.0
2017-05-03T11:17:13.906Z,15.1
2017-05-03T11:22:02.831Z,15.1
2017-05-03T11:27:03.271Z,15.0
2017-05-03T11:32:18.111Z,15.1
2017-05-03T11:37:03.178Z,15.0
2017-05-03T11:42:02.842Z,15.1
2017-05-03T11:47:17.966Z,15.3
2017-05-03T11:52:02.785Z,15.6
2017-05-03T11:57:03.250Z,16.0
2017-05-03T12:02:13.829Z,16.4
2017-05-03T12:07:03.328Z,16.7
2017-05-03T12:12:02.991Z,16.9
2017-05-03T12:17:14.154Z,17.2
2017-05-03T12:22:03.441Z,17.4
2017-05-03T12:27:02.785Z,17.5
2017-05-03T12:32:13.807Z,17.5
2017-05-03T12:37:03.541Z,17.6
2017-05-03T12:42:02.882Z,17.7
2017-05-03T12:47:13.932Z,17.7
2017-05-03T12:52:03.375Z,17.7
2017-05-03T12:57:02.770Z,17.7
2017-05-03T13:02:13.446Z,17.8
2017-05-03T13:07:02.906Z,17.8
2017-05-03T13:12:03.375Z,18.0
2017-05-03T13:22:02.920Z,18.3
2017-05-03T13:27:03.375Z,19.5
2017-05-03T13:32:13.006Z,20.5
2017-05-03T13:37:02.889Z,21.4
2017-05-03T13:42:03.234Z,21.3
2017-05-03T13:47:23.546Z,21.4
2017-05-03T13:52:03.044Z,21.4
2017-05-03T13:57:03.366Z,21.3
2017-05-03T14:02:13.221Z,21.3
2017-05-03T14:07:03.215Z,21.4
2017-05-03T14:12:02.710Z,21.3
2017-05-03T14:17:13.654Z,21.8
2017-05-03T14:22:02.827Z,21.9
2017-05-03T14:27:03.252Z,22.1
2017-05-03T14:32:17.296Z,22.1
2017-05-03T14:37:03.544Z,23.7
2017-05-03T14:42:03.026Z,25.4
2017-05-03T14:47:13.705Z,26.8
2017-05-03T14:52:02.983Z,22.0
2017-05-03T14:57:03.380Z,21.5
2017-05-03T15:02:13.096Z,21.4
2017-05-03T15:07:03.514Z,21.3
2017-05-03T15:12:03.084Z,21.3
2017-05-03T15:17:13.674Z,21.0
2017-05-03T15:22:03.261Z,20.5
2017-05-03T15:27:03.514Z,20.2
2017-05-03T15:32:13.436Z,20.1
2017-05-03T15:37:03.365Z,20.0
2017-05-03T15:42:02.695Z,19.8
2017-05-03T15:47:13.618Z,19.7
2017-05-03T15:52:03.111Z,19.5
2017-05-03T15:57:03.358Z,19.5
2017-05-03T16:02:13.294Z,19.4
2017-05-03T16:07:03.378Z,25.6
2017-05-03T16:12:02.827Z,28.1
2017-05-03T16:17:13.793Z,27.5
2017-05-03T16:22:03.055Z,27.4
2017-05-03T16:27:03.409Z,30.0
2017-05-03T16:37:03.511Z,33.9
2017-05-03T16:42:02.799Z,32.3
2017-05-03T16:47:13.687Z,26.8
2017-05-03T16:52:03.279Z,26.6
2017-05-03T16:57:03.584Z,22.1
2017-05-03T17:02:13.537Z,22.0
2017-05-03T17:07:03.599Z,20.9
2017-05-03T17:12:03.153Z,20.1
2017-05-03T17:17:17.394Z,19.4
2017-05-03T17:22:03.330Z,18.6
2017-05-03T17:27:02.765Z,17.6
2017-05-03T17:32:13.690Z,17.7
2017-05-03T17:37:02.833Z,17.6
2017-05-03T17:42:03.154Z,18.6
2017-05-03T17:47:13.870Z,24.0
2017-05-03T17:52:02.921Z,24.0
2017-05-03T17:57:03.252Z,22.5
2017-05-03T18:02:13.973Z,19.6
2017-05-03T18:07:03.392Z,18.5
2017-05-03T18:12:02.786Z,18.5
2017-05-03T18:17:13.911Z,17.8
2017-05-03T18:22:03.030Z,16.5
2017-05-03T18:27:03.400Z,16.4
2017-05-03T18:32:13.330Z,15.6
2017-05-03T18:37:02.995Z,15.6
2017-05-03T18:42:03.427Z,15.3
2017-05-03T18:47:17.731Z,14.8
2017-05-03T18:52:02.630Z,14.0
2017-05-03T18:57:02.818Z,13.9
2017-05-03T19:02:22.664Z,13.7
2017-05-03T19:07:03.609Z,13.5
2017-05-03T19:12:03.149Z,13.3
2017-05-03T19:17:14.609Z,12.8
2017-05-03T19:22:03.363Z,12.6
2017-05-03T19:27:02.856Z,12.6
2017-05-03T19:32:05.829Z,12.4
2017-05-03T19:37:02.657Z,12.4
2017-05-03T19:42:02.997Z,12.0
2017-05-03T19:47:03.763Z,12.0
2017-05-03T19:52:02.680Z,11.8
2017-05-03T19:57:02.999Z,11.3
2017-05-03T20:02:03.282Z,11.3
2017-05-03T20:07:02.782Z,11.2
2017-05-03T20:12:03.131Z,11.2
2017-05-03T20:17:03.473Z,11.1
2017-05-03T20:22:03.115Z,11.0
2017-05-03T20:27:03.119Z,10.9
2017-05-03T20:32:03.647Z,10.6
2017-05-03T20:37:02.755Z,10.6
2017-05-03T20:42:03.014Z,10.4
2017-05-03T20:47:03.252Z,10.4
2017-05-03T20:52:03.529Z,10.4
2017-05-03T20:57:02.862Z,10.1
2017-05-03T21:02:03.205Z,10.0
2017-05-03T21:07:03.576Z,9.8
2017-05-03T21:12:03.081Z,9.4
2017-05-03T21:17:03.317Z,9.4
2017-05-03T21:22:02.695Z,9.4
2017-05-03T21:27:03.036Z,9.2
2017-05-03T21:32:02.753Z,9.1
2017-05-03T21:37:02.993Z,9.0
2017-05-03T21:42:03.242Z,8.9
2017-05-03T21:47:03.579Z,9.0
2017-05-03T21:52:02.859Z,8.9
2017-05-03T21:57:03.103Z,8.9
2017-05-03T22:02:03.439Z,8.7
2017-05-03T22:07:03.045Z,8.7
2017-05-03T22:12:03.497Z,8.8
2017-05-03T22:22:03.831Z,8.6
2017-05-03T22:27:03.527Z,8.7
2017-05-03T22:32:03.585Z,8.6
2017-05-03T22:37:03.294Z,8.7
2017-05-03T22:42:03.290Z,8.7
2017-05-03T22:47:03.256Z,8.6
2017-05-03T22:52:03.268Z,8.4
2017-05-03T22:57:03.287Z,8.3
2017-05-03T23:02:03.096Z,8.2
2017-05-03T23:07:03.357Z,8.2
2017-05-03T23:12:03.552Z,8.1
2017-05-03T23:17:03.663Z,8.1
2017-05-03T23:22:02.898Z,8.2
2017-05-03T23:27:02.908Z,8.1
2017-05-03T23:32:03.103Z,8.2
2017-05-03T23:37:02.798Z,8.1
2017-05-03T23:42:03.347Z,8.1
2017-05-03T23:47:03.186Z,8.1
2017-05-03T23:52:03.091Z,8.0
2017-05-03T23:57:02.949Z,8.1
